createdAt,value
2016-03-22T08:52:18.685Z,10.92
2016-03-22T08:53:18.624Z,10.94
2016-03-22T08:54:18.191Z,10.95
2016-03-22T08:55:24.286Z,10.86
2016-03-22T08:56:20.132Z,10.88
2016-03-22T08:57:17.855Z,10.84
2016-03-22T08:58:17.841Z,10.84
2016-03-22T08:59:17.813Z,10.92
2016-03-22T09:00:17.957Z,10.88
2016-03-22T09:01:17.928Z,10.81
2016-03-22T09:02:17.852Z,10.77
2016-03-22T09:03:19.151Z,10.83
2016-03-22T09:04:17.670Z,10.84
2016-03-22T09:05:18.907Z,10.89
2016-03-22T09:06:17.645Z,10.98
2016-03-22T09:07:17.691Z,10.98
2016-03-22T09:08:18.006Z,10.94
2016-03-22T09:10:19.136Z,11.02
2016-03-22T09:11:18.202Z,11.16
2016-03-22T09:12:17.470Z,11.09
2016-03-22T09:13:22.083Z,11.16
2016-03-22T09:14:18.069Z,11.21
2016-03-22T09:15:17.431Z,11.19
2016-03-22T09:16:18.777Z,11.16
2016-03-22T09:17:17.343Z,11.25
2016-03-22T09:18:17.751Z,11.11
2016-03-22T09:19:17.442Z,11.25
2016-03-22T09:20:18.476Z,11.17
2016-03-22T09:21:19.024Z,11.25
2016-03-22T09:22:17.402Z,11.25
2016-03-22T09:23:17.249Z,11.29
2016-03-22T09:24:17.846Z,11.36
2016-03-22T09:25:17.129Z,11.44
2016-03-22T09:26:18.305Z,11.54
2016-03-22T09:27:17.245Z,11.59
2016-03-22T09:28:19.184Z,11.64
2016-03-22T09:29:18.656Z,11.62
2016-03-22T09:30:17.159Z,11.62
2016-03-22T09:31:17.709Z,11.61
2016-03-22T09:32:17.195Z,11.61
2016-03-22T09:33:17.245Z,11.47
2016-03-22T09:34:30.779Z,11.44
2016-03-22T09:35:16.969Z,11.39
2016-03-22T09:36:19.816Z,11.43
2016-03-22T09:37:17.068Z,11.35
2016-03-22T09:39:17.323Z,11.36
2016-03-22T09:40:20.951Z,11.43
2016-03-22T09:41:16.845Z,11.53
2016-03-22T09:42:17.035Z,11.57
2016-03-22T09:43:17.225Z,11.72
2016-03-22T09:44:16.993Z,11.75
2016-03-22T09:45:17.262Z,11.86
2016-03-22T09:46:17.405Z,11.83
2016-03-22T09:47:17.080Z,11.86
2016-03-22T09:48:16.629Z,11.94
2016-03-22T09:49:16.600Z,12.01
2016-03-22T09:50:16.697Z,12.09
2016-03-22T09:51:16.684Z,12.05
2016-03-22T09:52:16.890Z,12.02
2016-03-22T09:53:16.471Z,11.96
2016-03-22T09:54:16.473Z,11.99
2016-03-22T09:55:16.414Z,12.13
2016-03-22T09:56:16.416Z,12.27
2016-03-22T09:57:16.497Z,12.34
2016-03-22T09:58:16.328Z,12.38
2016-03-22T09:59:16.331Z,12.56
2016-03-22T10:00:16.521Z,12.48
2016-03-22T10:01:47.789Z,12.6
2016-03-22T10:02:17.167Z,12.51
2016-03-22T10:05:16.285Z,12.04
2016-03-22T10:06:16.568Z,11.9
2016-03-22T10:07:16.164Z,11.89
2016-03-22T10:08:16.340Z,11.77
2016-03-22T10:09:16.576Z,11.67
2016-03-22T10:10:16.220Z,11.57
2016-03-22T10:11:16.175Z,11.59
2016-03-22T10:12:16.522Z,11.64
2016-03-22T10:13:16.009Z,11.57
2016-03-22T10:14:16.012Z,11.56
2016-03-22T10:15:15.997Z,11.68
2016-03-22T10:16:15.889Z,11.54
2016-03-22T10:17:16.175Z,11.54
2016-03-22T10:18:16.035Z,11.53
2016-03-22T10:19:15.944Z,11.54
2016-03-22T10:20:15.900Z,11.46
2016-03-22T10:21:15.918Z,11.54
2016-03-22T10:22:15.874Z,11.64
2016-03-22T10:23:15.877Z,12.01
2016-03-22T10:24:15.723Z,12.12
2016-03-22T10:25:15.757Z,12.37
2016-03-22T10:26:15.666Z,12.59
2016-03-22T10:27:15.872Z,12.63
2016-03-22T10:28:15.671Z,12.78
2016-03-22T10:29:16.080Z,12.85
2016-03-22T10:30:16.351Z,12.93
2016-03-22T10:31:15.773Z,12.97
2016-03-22T10:32:15.838Z,13.07
2016-03-22T10:33:15.623Z,13.02
2016-03-22T10:34:15.968Z,13.11
2016-03-22T10:35:17.209Z,13.18
2016-03-22T10:36:15.474Z,13.17
2016-03-22T10:37:15.446Z,13.22
2016-03-22T10:38:15.651Z,13.17
2016-03-22T10:39:29.892Z,13.2
2016-03-22T10:40:15.595Z,13.2
2016-03-22T10:41:15.425Z,13.17
2016-03-22T10:42:15.646Z,13.24
2016-03-22T10:43:16.258Z,13.37
2016-03-22T10:44:15.449Z,13.41
2016-03-22T10:45:15.561Z,13.51
2016-03-22T10:47:15.800Z,13.59
2016-03-22T10:48:15.491Z,13.52
2016-03-22T10:49:15.291Z,13.46
2016-03-22T10:50:15.872Z,13.41
2016-03-22T10:51:15.155Z,13.29
2016-03-22T10:52:16.863Z,13.25
2016-03-22T10:53:15.254Z,13.18
2016-03-22T10:54:17.010Z,13.09
2016-03-22T10:55:15.041Z,13.14
2016-03-22T10:56:15.247Z,13.14
2016-03-22T10:57:29.080Z,13.09
2016-03-22T10:58:14.908Z,13.03
2016-03-22T10:59:15.285Z,12.93
2016-03-22T11:00:15.430Z,12.75
2016-03-22T11:01:15.448Z,12.74
2016-03-22T11:02:14.887Z,12.6
2016-03-22T11:03:15.782Z,12.59
2016-03-22T11:04:15.641Z,12.54
2016-03-22T11:05:15.498Z,12.46
2016-03-22T11:06:15.759Z,12.45
2016-03-22T11:07:15.396Z,12.38
2016-03-22T11:08:14.909Z,12.34
2016-03-22T11:09:14.719Z,12.42
2016-03-22T11:10:14.844Z,12.49
2016-03-22T11:11:14.704Z,12.46
2016-03-22T11:12:15.517Z,12.63
2016-03-22T11:13:15.096Z,12.87
2016-03-22T11:14:14.502Z,12.99
2016-03-22T11:15:14.536Z,13.09
2016-03-22T11:16:14.585Z,13.21
2016-03-22T11:17:15.196Z,13.18
2016-03-22T11:18:14.713Z,13.25
2016-03-22T11:19:14.341Z,13.25
2016-03-22T11:20:15.311Z,13.49
2016-03-22T11:21:14.469Z,13.62
2016-03-22T11:22:14.332Z,13.55
2016-03-22T11:23:14.474Z,13.58
2016-03-22T11:24:14.587Z,13.58
2016-03-22T11:25:14.371Z,13.63
2016-03-22T11:26:14.310Z,13.73
2016-03-22T11:27:14.329Z,13.8
2016-03-22T11:28:14.207Z,13.77
2016-03-22T11:29:15.756Z,13.79
2016-03-22T11:30:14.321Z,13.77
2016-03-22T11:31:14.230Z,13.69
2016-03-22T11:32:14.921Z,13.65
2016-03-22T11:33:23.551Z,13.83
2016-03-22T11:34:14.161Z,13.81
2016-03-22T11:35:14.084Z,13.99
2016-03-22T11:36:16.337Z,13.98
2016-03-22T11:37:14.012Z,13.96
2016-03-22T11:38:15.500Z,13.87
2016-03-22T11:39:16.080Z,13.7
2016-03-22T11:41:13.992Z,13.62
2016-03-22T11:42:14.088Z,13.56
2016-03-22T11:43:13.997Z,13.56
2016-03-22T11:44:14.000Z,13.59
2016-03-22T11:45:13.830Z,13.58
2016-03-22T11:46:13.989Z,13.56
2016-03-22T11:47:13.883Z,13.59
2016-03-22T11:48:27.763Z,13.52
2016-03-22T11:49:15.794Z,13.55
2016-03-22T11:50:14.640Z,13.52
2016-03-22T11:51:14.269Z,13.46
2016-03-22T11:53:27.432Z,13.56
2016-03-22T11:54:14.932Z,13.58
2016-03-22T11:55:14.451Z,13.47
2016-03-22T11:56:13.970Z,13.54
2016-03-22T11:57:13.691Z,13.49
2016-03-22T11:58:13.506Z,13.46
2016-03-22T13:00:11.360Z,17.63
2016-03-22T13:01:11.300Z,17.3
2016-03-22T13:02:11.240Z,17.15
2016-03-22T13:03:11.196Z,16.9
2016-03-22T13:04:24.170Z,16.71
2016-03-22T13:05:10.826Z,16.58
2016-03-22T13:06:10.533Z,16.48
2016-03-22T13:07:10.665Z,16.23
2016-03-22T13:08:10.246Z,16.14
2016-03-22T13:09:10.359Z,15.92
2016-03-22T13:10:10.158Z,15.72
2016-03-22T13:11:10.161Z,15.57
2016-03-22T13:12:10.507Z,15.45
2016-03-22T13:13:10.291Z,15.3
2016-03-22T13:14:10.013Z,15.24
2016-03-22T13:15:10.311Z,15.08
2016-03-22T13:16:10.721Z,14.98
2016-03-22T13:17:10.146Z,14.8
2016-03-22T13:18:10.491Z,14.71
2016-03-22T13:19:10.026Z,14.49
2016-03-22T13:20:10.372Z,14.44
2016-03-22T13:21:09.952Z,14.31
2016-03-22T13:22:09.830Z,14.2
2016-03-22T13:23:09.833Z,14.14
2016-03-22T13:24:09.804Z,14.04
2016-03-22T13:25:09.745Z,14.04
2016-03-22T13:26:10.200Z,13.92
2016-03-22T13:27:10.079Z,13.83
2016-03-22T13:28:10.143Z,13.91
2016-03-22T13:29:09.803Z,13.77
2016-03-22T13:30:09.806Z,13.69
2016-03-22T13:31:09.886Z,13.62
2016-03-22T13:32:23.470Z,13.59
2016-03-22T13:33:09.642Z,13.44
2016-03-22T13:34:09.691Z,13.36
2016-03-22T13:35:09.615Z,13.25
2016-03-22T13:36:09.930Z,13.22
2016-03-22T13:37:09.575Z,13.27
2016-03-22T13:38:09.420Z,13.18
2016-03-22T13:39:09.548Z,13.09
2016-03-22T13:40:09.614Z,13.04
2016-03-22T13:41:09.397Z,13.06
2016-03-22T13:42:09.884Z,13.06
2016-03-22T13:43:09.434Z,13.04
2016-03-22T13:44:09.625Z,13.04
2016-03-22T13:45:09.267Z,12.96
2016-03-22T13:46:09.144Z,13
2016-03-22T13:47:09.538Z,13
2016-03-22T13:48:09.963Z,12.92
2016-03-22T13:49:09.357Z,13
2016-03-22T13:50:09.813Z,13.06
2016-03-22T13:51:10.533Z,12.95
2016-03-22T13:52:22.977Z,12.99
2016-03-22T13:53:08.321Z,12.97
2016-03-22T13:54:09.323Z,13.09
2016-03-22T13:55:09.294Z,13.09
2016-03-22T13:56:22.815Z,13.09
2016-03-22T13:57:09.628Z,13.21
2016-03-22T13:58:09.115Z,13.14
2016-03-22T13:59:08.992Z,13.09
2016-03-22T14:00:09.121Z,13.07
2016-03-22T14:01:09.342Z,13.03
2016-03-22T14:02:08.298Z,13.02
2016-03-22T14:03:08.862Z,13.06
2016-03-22T14:04:09.037Z,13.02
2016-03-22T14:05:08.931Z,13
2016-03-22T14:06:08.995Z,13.03
2016-03-22T14:07:08.889Z,13.03
2016-03-22T14:08:09.033Z,13.22
2016-03-22T14:09:08.831Z,13.17
2016-03-22T14:10:09.414Z,13.15
2016-03-22T14:11:08.759Z,13.15
2016-03-22T14:12:09.356Z,13.21
2016-03-22T14:13:08.764Z,13.15
2016-03-22T14:14:08.674Z,13.12
2016-03-22T14:15:08.864Z,13.09
2016-03-22T14:16:08.819Z,13.04
2016-03-22T14:17:08.572Z,13.03
2016-03-22T14:18:08.919Z,13.02
2016-03-22T14:19:08.563Z,13.06
2016-03-22T14:20:08.486Z,13.04
2016-03-22T14:21:08.505Z,12.99
2016-03-22T14:22:08.476Z,12.93
2016-03-22T14:23:08.683Z,12.88
2016-03-22T14:24:08.513Z,13.02
2016-03-22T14:25:08.484Z,12.99
2016-03-22T14:26:08.518Z,12.82
2016-03-22T14:27:08.615Z,12.92
2016-03-22T14:28:08.352Z,12.82
2016-03-22T14:29:08.667Z,12.82
2016-03-22T14:30:09.076Z,12.78
2016-03-22T14:31:08.515Z,12.69
2016-03-22T14:32:08.378Z,12.74
2016-03-22T14:34:08.648Z,12.77
2016-03-22T14:35:08.746Z,12.7
2016-03-22T14:36:11.561Z,12.69
2016-03-22T14:37:09.236Z,12.67
2016-03-22T14:38:08.581Z,12.63
2016-03-22T14:39:09.881Z,12.7
2016-03-22T14:40:08.525Z,12.64
2016-03-22T14:41:08.699Z,12.69
2016-03-22T14:42:08.781Z,12.7
2016-03-22T14:43:11.314Z,12.67
2016-03-22T14:44:08.035Z,12.67
2016-03-22T14:45:08.726Z,12.71
2016-03-22T14:46:21.794Z,12.74
2016-03-22T14:47:08.372Z,12.79
2016-03-22T14:48:08.671Z,12.77
2016-03-22T14:49:07.877Z,12.79
2016-03-22T14:50:07.817Z,12.93
2016-03-22T14:51:07.944Z,12.84
2016-03-22T14:52:08.605Z,12.96
2016-03-22T14:53:07.935Z,12.87
2016-03-22T14:54:07.765Z,12.87
2016-03-22T14:55:07.299Z,12.95
2016-03-22T14:56:08.177Z,12.89
2016-03-22T14:57:08.039Z,12.89
2016-03-22T14:58:07.729Z,12.88
2016-03-22T14:59:07.747Z,12.87
2016-03-22T15:00:08.204Z,12.85
2016-03-22T15:01:07.721Z,12.88
2016-03-22T15:02:21.431Z,12.75
2016-03-22T15:03:07.681Z,12.77
2016-03-22T15:04:08.636Z,12.87
2016-03-22T15:05:07.982Z,12.69
2016-03-22T15:06:07.595Z,12.69
2016-03-22T15:07:21.475Z,12.66
2016-03-22T15:08:07.615Z,12.66
2016-03-22T15:09:08.055Z,12.49
2016-03-22T15:10:07.559Z,12.54
2016-03-22T15:11:21.111Z,12.44
2016-03-22T15:12:07.720Z,12.44
2016-03-22T15:13:07.286Z,12.44
2016-03-22T15:14:07.694Z,12.44
2016-03-22T15:15:07.431Z,12.46
2016-03-22T15:16:07.856Z,12.3
2016-03-22T15:17:09.984Z,12.34
2016-03-22T15:18:07.846Z,12.24
2016-03-22T15:20:07.226Z,12.19
2016-03-22T15:21:07.432Z,12.16
2016-03-22T15:22:07.028Z,12.16
2016-03-22T15:24:07.393Z,12.13
2016-03-22T15:25:07.177Z,12.15
2016-03-22T15:26:06.961Z,12.16
2016-03-22T15:27:07.354Z,12.15
2016-03-22T15:28:06.935Z,12.26
2016-03-22T15:29:06.875Z,12.16
2016-03-22T15:30:06.971Z,12.13
2016-03-22T15:31:06.099Z,12.12
2016-03-22T15:32:07.023Z,12.02
2016-03-22T15:33:06.808Z,12.09
2016-03-22T15:34:06.826Z,12.09
2016-03-22T15:35:06.923Z,12.06
2016-03-22T15:36:06.925Z,12.15
2016-03-22T15:37:06.881Z,12.15
2016-03-22T15:38:06.931Z,12.16
2016-03-22T15:39:06.745Z,12.2
2016-03-22T15:40:06.873Z,12.29
2016-03-22T15:41:07.017Z,12.37
2016-03-22T15:42:06.785Z,12.31
2016-03-22T15:43:06.803Z,12.42
2016-03-22T15:44:06.525Z,12.45
2016-03-22T15:45:09.950Z,12.51
2016-03-22T15:46:06.796Z,12.46
2016-03-22T15:47:23.566Z,12.52
2016-03-22T15:48:06.535Z,12.45
2016-03-22T15:49:06.491Z,12.44
2016-03-22T15:50:06.760Z,12.54
2016-03-22T15:51:06.574Z,12.51
2016-03-22T15:52:08.094Z,12.56
2016-03-22T15:53:20.408Z,12.59
2016-03-22T15:54:06.505Z,12.52
2016-03-22T15:55:06.539Z,12.56
2016-03-22T15:56:06.229Z,12.62
2016-03-22T15:57:05.622Z,12.52
2016-03-22T15:58:06.266Z,12.6
2016-03-22T15:59:06.299Z,12.57
2016-03-22T16:00:06.240Z,12.56
2016-03-22T16:01:06.133Z,12.46
2016-03-22T16:02:06.245Z,12.44
2016-03-22T16:03:06.310Z,12.44
2016-03-22T16:04:06.047Z,12.48
2016-03-22T16:05:06.050Z,12.52
2016-03-22T16:06:06.693Z,12.49
2016-03-22T16:07:06.024Z,12.37
2016-03-22T16:08:06.011Z,12.31
2016-03-22T16:09:06.045Z,12.31
2016-03-22T16:10:05.875Z,12.23
2016-03-22T16:11:05.941Z,12.27
2016-03-22T16:12:06.006Z,12.21
2016-03-22T16:13:19.650Z,12.19
2016-03-22T16:14:05.824Z,12.19
2016-03-22T16:15:06.109Z,12.21
2016-03-22T16:16:06.064Z,12.16
2016-03-22T16:17:06.301Z,12.21
2016-03-22T16:18:05.897Z,12.15
2016-03-22T16:19:06.010Z,12.13
2016-03-22T16:20:06.231Z,12.09
2016-03-22T16:21:05.702Z,12.06
2016-03-22T16:22:05.861Z,12.04
2016-03-22T16:23:06.067Z,12.04
2016-03-22T16:24:05.569Z,12.01
2016-03-22T16:25:05.667Z,11.99
2016-03-22T16:26:05.872Z,11.99
2016-03-22T16:27:05.499Z,12.04
2016-03-22T16:28:05.502Z,11.96
2016-03-22T16:29:05.537Z,11.87
2016-03-22T16:30:05.617Z,11.93
2016-03-22T16:31:05.542Z,11.8
2016-03-22T16:32:05.497Z,11.93
2016-03-22T16:33:05.454Z,11.83
2016-03-22T16:34:05.518Z,11.78
2016-03-22T16:35:05.349Z,11.82
2016-03-22T16:36:05.274Z,11.78
2016-03-22T16:37:05.229Z,11.78
2016-03-22T16:38:05.201Z,11.8
2016-03-22T16:39:05.204Z,11.85
2016-03-22T16:40:05.254Z,11.89
2016-03-22T16:41:05.334Z,11.78
2016-03-22T16:42:05.102Z,11.8
2016-03-22T16:43:05.090Z,11.82
2016-03-22T16:44:05.467Z,11.77
2016-03-22T16:45:05.158Z,11.89
2016-03-22T16:46:05.270Z,11.83
2016-03-22T16:47:05.335Z,11.72
2016-03-22T16:48:05.009Z,11.65
2016-03-22T16:49:04.980Z,11.64
2016-03-22T16:50:05.359Z,11.61
2016-03-22T16:51:04.892Z,11.68
2016-03-22T16:52:04.848Z,11.67
2016-03-22T16:53:05.022Z,11.77
2016-03-22T16:54:04.900Z,11.62
2016-03-22T16:55:04.810Z,11.64
2016-03-22T16:56:04.844Z,11.65
2016-03-22T16:57:04.863Z,11.65
2016-03-22T16:58:04.974Z,11.65
2016-03-22T16:59:04.757Z,11.57
2016-03-22T17:00:19.121Z,11.56
2016-03-22T17:02:05.281Z,11.57
2016-03-22T17:03:04.768Z,11.54
2016-03-22T17:04:04.959Z,11.52
2016-03-22T17:05:04.664Z,11.56
2016-03-22T17:06:04.604Z,11.59
2016-03-22T17:07:04.545Z,11.62
2016-03-22T17:08:04.688Z,11.54
2016-03-22T17:09:04.737Z,11.65
2016-03-22T17:10:03.928Z,11.53
2016-03-22T17:11:04.696Z,11.52
2016-03-22T17:12:04.527Z,11.56
2016-03-22T17:13:04.545Z,11.54
2016-03-22T17:14:04.376Z,11.54
2016-03-22T17:15:04.301Z,11.53
2016-03-22T17:16:04.444Z,11.53
2016-03-22T17:17:04.291Z,11.56
2016-03-22T17:18:04.309Z,11.49
2016-03-22T17:19:04.655Z,11.52
2016-03-22T17:20:04.502Z,11.53
2016-03-22T17:21:03.817Z,11.53
2016-03-22T17:22:04.225Z,11.52
2016-03-22T17:23:04.447Z,11.5
2016-03-22T17:24:04.606Z,11.49
2016-03-22T17:25:04.219Z,11.43
2016-03-22T17:26:04.268Z,11.49
2016-03-22T17:27:04.239Z,11.5
2016-03-22T17:28:07.055Z,11.52
2016-03-22T17:29:04.104Z,11.46
2016-03-22T17:30:04.029Z,11.5
2016-03-22T17:31:04.204Z,11.53
2016-03-22T17:32:03.893Z,11.53
2016-03-22T17:33:03.912Z,11.43
2016-03-22T17:34:04.054Z,11.46
2016-03-22T17:35:03.870Z,11.44
2016-03-22T17:36:04.029Z,11.46
2016-03-22T17:37:03.015Z,11.41
2016-03-22T17:38:03.956Z,11.35
2016-03-22T17:39:03.693Z,11.43
2016-03-22T17:40:03.852Z,11.39
2016-03-22T17:41:02.840Z,11.34
2016-03-22T17:42:03.779Z,11.39
2016-03-22T17:43:03.719Z,11.32
2016-03-22T17:44:04.425Z,11.32
2016-03-22T17:45:04.069Z,11.35
2016-03-22T17:46:03.712Z,11.43
2016-03-22T17:47:03.777Z,11.41
2016-03-22T17:48:03.796Z,11.44
2016-03-22T17:49:03.611Z,11.44
2016-03-22T17:50:03.738Z,11.36
2016-03-22T17:51:03.850Z,11.38
2016-03-22T17:52:03.775Z,11.41
2016-03-22T17:53:17.653Z,11.34
2016-03-22T17:54:03.405Z,11.43
2016-03-22T17:55:03.393Z,11.36
2016-03-22T17:56:03.677Z,11.44
2016-03-22T17:57:04.148Z,11.36
2016-03-22T17:58:06.964Z,11.35
2016-03-22T17:59:03.450Z,11.36
2016-03-22T18:00:03.578Z,11.36
2016-03-22T18:01:03.721Z,11.39
2016-03-22T18:02:03.583Z,11.34
2016-03-22T18:03:03.399Z,11.41
2016-03-22T18:04:03.167Z,11.36
2016-03-22T18:05:03.341Z,11.36
2016-03-22T18:06:03.141Z,11.36
2016-03-22T18:07:03.034Z,11.44
2016-03-22T18:08:03.053Z,11.41
2016-03-22T18:09:03.024Z,11.38
2016-03-22T18:10:02.979Z,11.38
2016-03-22T18:11:02.951Z,11.35
2016-03-22T18:12:03.376Z,11.43
2016-03-22T18:13:03.004Z,11.36
2016-03-22T18:14:02.881Z,11.38
2016-03-22T18:15:02.930Z,11.36
2016-03-22T18:16:03.231Z,11.41
2016-03-22T18:17:02.858Z,11.32
2016-03-22T18:18:02.830Z,11.32
2016-03-22T18:19:02.801Z,11.32
2016-03-22T18:20:02.866Z,11.36
2016-03-22T18:21:02.806Z,11.36
2016-03-22T18:22:02.918Z,11.31
2016-03-22T18:23:02.734Z,11.27
2016-03-22T18:24:02.861Z,11.35
2016-03-22T18:25:02.801Z,11.34
2016-03-22T18:26:02.742Z,11.32
2016-03-22T18:27:03.275Z,11.31
2016-03-22T18:28:02.794Z,11.29
2016-03-22T18:29:02.563Z,11.21
2016-03-22T18:30:02.752Z,11.28
2016-03-22T18:31:16.286Z,11.16
2016-03-22T18:32:03.242Z,11.2
2016-03-22T18:33:02.824Z,11.25
2016-03-22T18:34:05.435Z,11.13
2016-03-22T18:35:02.376Z,11.14
2016-03-22T18:36:02.362Z,11.09
2016-03-22T18:37:02.365Z,11.06
2016-03-22T18:38:02.337Z,11.09
2016-03-22T18:39:02.964Z,11.09
2016-03-22T18:40:02.295Z,11.1
2016-03-22T18:41:02.798Z,10.99
2016-03-22T18:42:02.425Z,11.1
2016-03-22T18:43:02.272Z,11.02
2016-03-22T18:44:02.180Z,10.98
2016-03-22T18:45:03.042Z,11.07
2016-03-22T18:46:02.108Z,11.02
2016-03-22T18:47:02.173Z,11.07
2016-03-22T18:48:02.067Z,11.06
2016-03-22T18:49:04.288Z,11.01
2016-03-22T18:50:02.009Z,11.02
2016-03-22T18:51:02.090Z,10.98
2016-03-22T18:52:02.217Z,10.99
2016-03-22T18:53:01.924Z,11.02
2016-03-22T18:54:01.973Z,10.95
2016-03-22T18:55:01.913Z,10.88
2016-03-22T18:56:02.197Z,10.96
2016-03-22T18:57:03.699Z,10.89
2016-03-22T18:58:02.327Z,10.88
2016-03-22T18:59:01.830Z,10.89
2016-03-22T19:00:01.833Z,10.88
2016-03-22T19:01:03.914Z,10.88
2016-03-22T19:02:01.979Z,10.91
2016-03-22T19:03:02.201Z,10.86
2016-03-22T19:04:01.812Z,10.81
2016-03-22T19:05:01.707Z,10.84
2016-03-22T19:06:02.349Z,10.88
2016-03-22T19:07:02.023Z,10.88
2016-03-22T19:08:01.668Z,10.77
2016-03-22T19:09:01.967Z,10.86
2016-03-22T19:10:01.735Z,10.83
2016-03-22T19:11:01.612Z,10.74
2016-03-22T19:12:02.068Z,10.86
2016-03-22T19:13:01.509Z,10.83
2016-03-22T19:14:01.512Z,10.86
2016-03-22T19:15:02.170Z,10.91
2016-03-22T19:16:02.454Z,10.86
2016-03-22T19:17:15.503Z,10.88
2016-03-22T19:18:01.506Z,10.84
2016-03-22T19:19:01.915Z,10.91
2016-03-22T19:20:01.324Z,10.94
2016-03-22T19:21:01.343Z,10.89
2016-03-22T19:22:02.330Z,10.81
2016-03-22T19:23:02.222Z,10.8
2016-03-22T19:24:01.475Z,10.83
2016-03-22T19:25:01.431Z,10.78
2016-03-22T19:26:01.559Z,10.77
2016-03-22T19:27:01.281Z,10.78
2016-03-22T19:28:01.486Z,10.74
2016-03-22T19:29:02.833Z,10.76
2016-03-22T19:30:01.569Z,10.73
2016-03-22T19:31:02.104Z,10.78
2016-03-22T19:32:00.950Z,10.83
2016-03-22T19:33:02.532Z,10.78
2016-03-22T19:34:01.034Z,10.8
2016-03-22T19:35:00.958Z,10.84
2016-03-22T19:36:01.227Z,10.78
2016-03-22T19:37:01.042Z,10.8
2016-03-22T19:38:01.341Z,10.8
2016-03-22T19:39:00.828Z,10.76
2016-03-22T19:40:00.816Z,10.73
2016-03-22T19:41:00.037Z,10.76
2016-03-22T19:42:00.743Z,10.84
2016-03-22T19:43:00.793Z,10.83
2016-03-22T19:44:00.686Z,10.74
2016-03-22T19:45:00.782Z,10.76
2016-03-22T19:46:00.738Z,10.7
2016-03-22T19:47:00.647Z,10.73
2016-03-22T19:48:01.087Z,10.7
2016-03-22T19:49:00.620Z,10.66
2016-03-22T19:50:00.655Z,10.78
2016-03-22T19:51:00.955Z,10.65
2016-03-22T19:52:00.488Z,10.65
2016-03-22T19:53:01.054Z,10.76
2016-03-22T19:55:00.856Z,10.8
2016-03-22T19:56:00.764Z,10.63
2016-03-22T19:57:00.674Z,10.77
2016-03-22T19:58:14.177Z,10.76
2016-03-22T19:59:00.397Z,10.73
2016-03-22T20:00:00.635Z,10.74
2016-03-22T20:01:00.497Z,10.83
2016-03-22T20:02:00.796Z,10.74
2016-03-22T20:03:00.549Z,10.81
2016-03-22T20:04:02.255Z,10.81
2016-03-22T20:05:00.180Z,10.81
2016-03-22T20:06:00.416Z,10.81
2016-03-22T20:07:00.138Z,10.76
2016-03-22T20:08:00.438Z,10.77
2016-03-22T20:09:00.128Z,10.81
2016-03-22T20:10:00.468Z,10.81
2016-03-22T20:11:00.034Z,10.81
2016-03-22T20:11:59.942Z,10.88
2016-03-22T20:13:00.070Z,10.86
2016-03-22T20:14:00.072Z,10.88
2016-03-22T20:14:59.890Z,10.88
2016-03-22T20:16:00.043Z,10.74
2016-03-22T20:16:59.993Z,10.8
2016-03-22T20:17:59.817Z,10.86
2016-03-22T20:18:59.768Z,10.74
2016-03-22T20:19:59.860Z,10.83
2016-03-22T20:20:59.735Z,10.84
2016-03-22T20:21:59.954Z,10.8
2016-03-22T20:23:13.455Z,10.83
2016-03-22T20:23:59.924Z,10.78
2016-03-22T20:24:59.972Z,10.83
2016-03-22T20:25:59.662Z,10.77
2016-03-22T20:27:00.319Z,10.81
2016-03-22T20:27:59.634Z,10.81
2016-03-22T20:28:59.901Z,10.81
2016-03-22T20:29:59.544Z,10.78
2016-03-22T20:30:59.390Z,10.81
2016-03-22T20:31:59.610Z,10.8
2016-03-22T20:32:59.878Z,10.8
2016-03-22T20:34:59.805Z,10.77
2016-03-22T20:35:59.308Z,10.8
2016-03-22T20:36:59.686Z,10.81
2016-03-22T20:37:58.470Z,10.74
2016-03-22T20:38:59.566Z,10.77
2016-03-22T20:39:59.850Z,10.71
2016-03-22T20:40:59.431Z,10.68
2016-03-22T20:42:01.246Z,10.7
2016-03-22T20:42:59.764Z,10.66
2016-03-22T20:43:59.142Z,10.7
2016-03-22T20:44:59.380Z,10.73
2016-03-22T20:45:59.616Z,10.68
2016-03-22T20:46:59.369Z,10.8
2016-03-22T20:47:59.747Z,10.73
2016-03-22T20:48:58.968Z,10.77
2016-03-22T20:49:59.096Z,10.66
2016-03-22T20:50:58.973Z,10.68
2016-03-22T20:51:58.961Z,10.66
2016-03-22T20:52:58.885Z,10.73
2016-03-22T20:53:58.888Z,10.65
2016-03-22T20:54:58.906Z,10.66
2016-03-22T20:55:58.893Z,10.68
2016-03-22T20:56:59.036Z,10.6
2016-03-22T20:57:59.009Z,10.65
2016-03-22T20:58:58.792Z,10.65
2016-03-22T20:59:59.279Z,10.7
2016-03-22T21:00:58.734Z,10.63
2016-03-22T21:01:58.940Z,10.6
2016-03-22T21:02:58.647Z,10.63
2016-03-22T21:03:58.617Z,10.56
2016-03-22T21:04:58.573Z,10.66
2016-03-22T21:05:58.654Z,10.65
2016-03-22T21:06:58.626Z,10.58
2016-03-22T21:07:58.597Z,10.59
2016-03-22T21:08:58.741Z,10.6
2016-03-22T21:09:58.525Z,10.65
2016-03-22T21:10:58.433Z,10.68
2016-03-22T21:11:58.467Z,10.63
2016-03-22T21:12:58.391Z,10.66
2016-03-22T21:13:58.473Z,10.68
2016-03-22T21:14:58.382Z,10.65
2016-03-22T21:15:58.307Z,10.62
2016-03-22T21:16:58.324Z,10.6
2016-03-22T21:17:58.827Z,10.62
2016-03-22T21:18:58.268Z,10.58
2016-03-22T21:19:58.379Z,10.55
2016-03-22T21:20:58.102Z,10.55
2016-03-22T21:21:58.135Z,10.51
2016-03-22T21:22:58.121Z,10.58
2016-03-22T21:23:58.093Z,10.55
2016-03-22T21:24:58.081Z,10.53
2016-03-22T21:25:58.115Z,10.51
2016-03-22T21:26:58.180Z,10.46
2016-03-22T21:27:58.010Z,10.46
2016-03-22T21:28:58.248Z,10.51
2016-03-22T21:30:58.035Z,10.47
2016-03-22T21:31:58.209Z,10.52
2016-03-22T21:32:57.853Z,10.52
2016-03-22T21:33:58.042Z,10.52
2016-03-22T21:34:57.873Z,10.56
2016-03-22T21:35:57.861Z,10.52
2016-03-22T21:36:58.034Z,10.53
2016-03-22T21:37:57.740Z,10.53
2016-03-22T21:38:57.727Z,10.56
2016-03-22T21:39:57.730Z,10.58
2016-03-22T21:40:58.749Z,10.58
2016-03-22T21:41:57.658Z,10.53
2016-03-22T21:43:57.647Z,10.58
2016-03-22T21:44:57.727Z,10.53
2016-03-22T21:45:57.574Z,10.56
2016-03-22T21:46:57.530Z,10.63
2016-03-22T21:47:57.564Z,10.58
2016-03-22T21:48:57.488Z,10.55
2016-03-22T21:49:57.523Z,10.55
2016-03-22T21:50:57.557Z,10.59
2016-03-22T21:51:57.481Z,10.58
2016-03-22T21:52:57.422Z,10.59
2016-03-22T21:53:57.393Z,10.59
2016-03-22T21:54:57.490Z,10.56
2016-03-22T21:55:57.492Z,10.56
2016-03-22T21:56:57.338Z,10.56
2016-03-22T21:57:57.263Z,10.59
2016-03-22T21:58:57.250Z,10.55
2016-03-22T21:59:57.253Z,10.6
2016-03-22T22:00:57.802Z,10.68
2016-03-22T22:01:57.352Z,10.66
2016-03-22T22:02:57.136Z,10.6
2016-03-22T22:03:57.092Z,10.62
2016-03-22T22:04:57.126Z,10.66
2016-03-22T22:05:57.097Z,10.66
2016-03-22T22:06:57.381Z,10.62
2016-03-22T22:07:57.056Z,10.56
2016-03-22T22:08:57.059Z,10.68
2016-03-22T22:09:56.936Z,10.68
2016-03-22T22:10:56.939Z,10.68
2016-03-22T22:11:57.066Z,10.68
2016-03-22T22:12:56.944Z,10.68
2016-03-22T22:13:56.899Z,10.65
2016-03-22T22:14:56.966Z,10.63
2016-03-22T22:15:56.811Z,10.63
2016-03-22T22:16:56.783Z,10.66
2016-03-22T22:17:56.894Z,10.63
2016-03-22T22:18:56.851Z,10.6
2016-03-22T22:19:56.744Z,10.62
2016-03-22T22:20:56.699Z,10.56
2016-03-22T22:21:56.734Z,10.53
2016-03-22T22:22:56.642Z,10.55
2016-03-22T22:23:56.661Z,10.55
2016-03-22T22:24:56.663Z,10.52
2016-03-22T22:25:56.604Z,10.56
2016-03-22T22:26:56.669Z,10.52
2016-03-22T22:27:56.500Z,10.53
2016-03-22T22:28:56.549Z,10.53
2016-03-22T22:29:56.489Z,10.58
2016-03-22T22:30:56.477Z,10.52
2016-03-22T22:31:56.464Z,10.58
2016-03-22T22:32:56.403Z,10.56
2016-03-22T22:33:56.609Z,10.44
2016-03-22T22:34:56.409Z,10.51
2016-03-22T22:35:59.006Z,10.47
2016-03-22T22:36:58.915Z,10.46
2016-03-22T22:37:58.683Z,10.43
2016-03-22T22:38:58.780Z,10.43
2016-03-22T22:39:59.407Z,10.37
2016-03-22T22:40:58.801Z,10.4
2016-03-22T22:41:58.475Z,10.42
2016-03-22T22:42:58.587Z,10.33
2016-03-22T22:43:58.652Z,10.37
2016-03-22T22:44:58.999Z,10.33
2016-03-22T22:45:59.095Z,10.33
2016-03-22T22:46:58.316Z,10.34
2016-03-22T22:47:58.883Z,10.33
2016-03-22T22:48:58.838Z,10.33
2016-03-22T22:49:58.997Z,10.33
2016-03-22T22:51:00.499Z,10.28
2016-03-22T22:51:59.065Z,10.28
2016-03-22T22:52:58.568Z,10.32
2016-03-22T22:53:58.585Z,10.28
2016-03-22T22:54:59.728Z,10.3
2016-03-22T22:55:58.591Z,10.33
2016-03-22T22:56:58.390Z,10.34
2016-03-22T22:57:59.081Z,10.33
2016-03-22T22:58:58.068Z,10.32
2016-03-22T22:59:57.477Z,10.33
2016-03-22T23:00:58.245Z,10.37
2016-03-22T23:01:58.231Z,10.3